sensor_id;sensor_type;location;lat;lon;timestamp;pressure;altitude;pressure_sealevel;temperature
11792;BMP180;5953;52.372;9.918;2023-04-25T00:01:57;99849.00;;;12.30
11792;BMP180;5953;52.372;9.918;2023-04-25T00:04:27;99873.00;;;12.40
11792;BMP180;5953;52.372;9.918;2023-04-25T00:06:56;99876.00;;;12.50
11792;BMP180;5953;52.372;9.918;2023-04-25T00:09:26;99872.00;;;12.40
11792;BMP180;5953;52.372;9.918;2023-04-25T00:11:54;99886.00;;;12.40
11792;BMP180;5953;52.372;9.918;2023-04-25T00:14:22;99890.00;;;12.20
11792;BMP180;5953;52.372;9.918;2023-04-25T00:16:50;99886.00;;;11.90
11792;BMP180;5953;52.372;9.918;2023-04-25T00:19:18;99889.00;;;12.00
11792;BMP180;5953;52.372;9.918;2023-04-25T00:21:46;99889.00;;;12.20
11792;BMP180;5953;52.372;9.918;2023-04-25T00:24:14;99885.00;;;12.20
11792;BMP180;5953;52.372;9.918;2023-04-25T00:26:43;99892.00;;;12.10
11792;BMP180;5953;52.372;9.918;2023-04-25T00:29:11;99883.00;;;12.20
11792;BMP180;5953;52.372;9.918;2023-04-25T00:31:38;99885.00;;;12.20
11792;BMP180;5953;52.372;9.918;2023-04-25T00:34:07;99865.00;;;12.20
11792;BMP180;5953;52.372;9.918;2023-04-25T00:36:35;99874.00;;;12.20
11792;BMP180;5953;52.372;9.918;2023-04-25T00:39:04;99886.00;;;12.00
11792;BMP180;5953;52.372;9.918;2023-04-25T00:41:32;99898.00;;;12.10
11792;BMP180;5953;52.372;9.918;2023-04-25T00:44:03;99886.00;;;12.20
11792;BMP180;5953;52.372;9.918;2023-04-25T00:46:31;99884.00;;;12.20
11792;BMP180;5953;52.372;9.918;2023-04-25T00:48:58;99871.00;;;12.40
11792;BMP180;5953;52.372;9.918;2023-04-25T00:51:26;99878.00;;;12.20
11792;BMP180;5953;52.372;9.918;2023-04-25T00:53:54;99882.00;;;12.10
11792;BMP180;5953;52.372;9.918;2023-04-25T00:56:22;99877.00;;;12.10
11792;BMP180;5953;52.372;9.918;2023-04-25T00:58:52;99844.00;;;12.10
11792;BMP180;5953;52.372;9.918;2023-04-25T01:01:22;99878.00;;;12.20
11792;BMP180;5953;52.372;9.918;2023-04-25T01:03:50;99870.00;;;12.00
11792;BMP180;5953;52.372;9.918;2023-04-25T01:06:18;99875.00;;;12.10
11792;BMP180;5953;52.372;9.918;2023-04-25T01:08:46;99879.00;;;11.90
11792;BMP180;5953;52.372;9.918;2023-04-25T01:11:14;99882.00;;;11.70
11792;BMP180;5953;52.372;9.918;2023-04-25T01:13:41;99877.00;;;11.80
11792;BMP180;5953;52.372;9.918;2023-04-25T01:16:09;99880.00;;;11.80
11792;BMP180;5953;52.372;9.918;2023-04-25T01:18:40;99872.00;;;11.90
11792;BMP180;5953;52.372;9.918;2023-04-25T01:21:10;99876.00;;;11.90
11792;BMP180;5953;52.372;9.918;2023-04-25T01:23:40;99871.00;;;11.80
11792;BMP180;5953;52.372;9.918;2023-04-25T01:26:10;99864.00;;;11.90
11792;BMP180;5953;52.372;9.918;2023-04-25T01:28:39;99871.00;;;11.80
11792;BMP180;5953;52.372;9.918;2023-04-25T01:31:07;99868.00;;;12.00
11792;BMP180;5953;52.372;9.918;2023-04-25T01:33:36;99863.00;;;11.90
11792;BMP180;5953;52.372;9.918;2023-04-25T01:36:04;99851.00;;;11.40
11792;BMP180;5953;52.372;9.918;2023-04-25T01:38:34;99857.00;;;11.80
11792;BMP180;5953;52.372;9.918;2023-04-25T01:41:02;99827.00;;;11.90
11792;BMP180;5953;52.372;9.918;2023-04-25T01:43:30;99858.00;;;11.90
11792;BMP180;5953;52.372;9.918;2023-04-25T01:45:58;99848.00;;;11.90
11792;BMP180;5953;52.372;9.918;2023-04-25T01:48:27;99861.00;;;11.60
11792;BMP180;5953;52.372;9.918;2023-04-25T01:50:55;99866.00;;;11.70
11792;BMP180;5953;52.372;9.918;2023-04-25T01:53:22;99869.00;;;11.70
11792;BMP180;5953;52.372;9.918;2023-04-25T01:55:52;99879.00;;;11.80
11792;BMP180;5953;52.372;9.918;2023-04-25T01:58:20;99876.00;;;11.90
11792;BMP180;5953;52.372;9.918;2023-04-25T02:00:48;99879.00;;;11.70
11792;BMP180;5953;52.372;9.918;2023-04-25T02:03:15;99856.00;;;11.80
11792;BMP180;5953;52.372;9.918;2023-04-25T02:05:43;99885.00;;;11.80
11792;BMP180;5953;52.372;9.918;2023-04-25T02:08:11;99880.00;;;11.90
11792;BMP180;5953;52.372;9.918;2023-04-25T02:10:39;99871.00;;;11.70
11792;BMP180;5953;52.372;9.918;2023-04-25T02:13:08;99887.00;;;11.80
11792;BMP180;5953;52.372;9.918;2023-04-25T02:15:36;99894.00;;;11.80
11792;BMP180;5953;52.372;9.918;2023-04-25T02:18:04;99886.00;;;11.90
11792;BMP180;5953;52.372;9.918;2023-04-25T02:20:33;99889.00;;;11.60
11792;BMP180;5953;52.372;9.918;2023-04-25T02:23:00;99886.00;;;11.80
11792;BMP180;5953;52.372;9.918;2023-04-25T02:25:29;99889.00;;;11.90
11792;BMP180;5953;52.372;9.918;2023-04-25T02:27:56;99890.00;;;11.70
11792;BMP180;5953;52.372;9.918;2023-04-25T02:30:25;99899.00;;;11.70
11792;BMP180;5953;52.372;9.918;2023-04-25T02:32:53;99888.00;;;11.50
11792;BMP180;5953;52.372;9.918;2023-04-25T02:35:21;99899.00;;;11.30
11792;BMP180;5953;52.372;9.918;2023-04-25T02:37:49;99901.00;;;11.40
11792;BMP180;5953;52.372;9.918;2023-04-25T02:40:17;99906.00;;;11.50
11792;BMP180;5953;52.372;9.918;2023-04-25T02:42:44;99918.00;;;11.60
11792;BMP180;5953;52.372;9.918;2023-04-25T02:45:13;99917.00;;;11.70
11792;BMP180;5953;52.372;9.918;2023-04-25T02:47:42;99919.00;;;11.80
11792;BMP180;5953;52.372;9.918;2023-04-25T02:50:10;99924.00;;;11.70
11792;BMP180;5953;52.372;9.918;2023-04-25T02:52:38;99917.00;;;11.60
11792;BMP180;5953;52.372;9.918;2023-04-25T02:55:07;99929.00;;;11.70
11792;BMP180;5953;52.372;9.918;2023-04-25T02:57:34;99932.00;;;11.70
11792;BMP180;5953;52.372;9.918;2023-04-25T03:00:03;99931.00;;;11.90
11792;BMP180;5953;52.372;9.918;2023-04-25T03:02:32;99937.00;;;11.70
11792;BMP180;5953;52.372;9.918;2023-04-25T03:05:01;99934.00;;;11.70
11792;BMP180;5953;52.372;9.918;2023-04-25T03:07:29;99926.00;;;11.80
11792;BMP180;5953;52.372;9.918;2023-04-25T03:09:57;99905.00;;;12.00
11792;BMP180;5953;52.372;9.918;2023-04-25T03:12:25;99924.00;;;11.60
11792;BMP180;5953;52.372;9.918;2023-04-25T03:14:53;99939.00;;;11.80
11792;BMP180;5953;52.372;9.918;2023-04-25T03:17:20;99931.00;;;12.00
11792;BMP180;5953;52.372;9.918;2023-04-25T03:19:48;99931.00;;;11.70
11792;BMP180;5953;52.372;9.918;2023-04-25T03:22:18;99929.00;;;11.80
11792;BMP180;5953;52.372;9.918;2023-04-25T03:24:45;99927.00;;;11.90
11792;BMP180;5953;52.372;9.918;2023-04-25T03:27:13;99938.00;;;11.70
11792;BMP180;5953;52.372;9.918;2023-04-25T03:29:41;99937.00;;;12.00
11792;BMP180;5953;52.372;9.918;2023-04-25T03:32:09;99942.00;;;12.20
11792;BMP180;5953;52.372;9.918;2023-04-25T03:34:37;99920.00;;;12.30
11792;BMP180;5953;52.372;9.918;2023-04-25T03:37:05;99946.00;;;12.10
11792;BMP180;5953;52.372;9.918;2023-04-25T03:39:34;99954.00;;;12.30
11792;BMP180;5953;52.372;9.918;2023-04-25T03:42:02;99964.00;;;12.20
11792;BMP180;5953;52.372;9.918;2023-04-25T03:44:30;99973.00;;;12.10
11792;BMP180;5953;52.372;9.918;2023-04-25T03:46:58;99962.00;;;12.00
11792;BMP180;5953;52.372;9.918;2023-04-25T03:49:26;99967.00;;;12.00
11792;BMP180;5953;52.372;9.918;2023-04-25T03:51:54;99971.00;;;12.10
11792;BMP180;5953;52.372;9.918;2023-04-25T03:54:21;99968.00;;;11.70
11792;BMP180;5953;52.372;9.918;2023-04-25T03:56:50;99967.00;;;11.90
11792;BMP180;5953;52.372;9.918;2023-04-25T03:59:18;99979.00;;;12.00
11792;BMP180;5953;52.372;9.918;2023-04-25T04:01:46;99963.00;;;11.90
11792;BMP180;5953;52.372;9.918;2023-04-25T04:04:14;99987.00;;;11.80
11792;BMP180;5953;52.372;9.918;2023-04-25T04:06:42;99989.00;;;12.10
11792;BMP180;5953;52.372;9.918;2023-04-25T04:09:10;99983.00;;;11.80
11792;BMP180;5953;52.372;9.918;2023-04-25T04:11:39;99987.00;;;11.70
11792;BMP180;5953;52.372;9.918;2023-04-25T04:14:08;99998.00;;;11.70
11792;BMP180;5953;52.372;9.918;2023-04-25T04:16:36;99995.00;;;11.70
11792;BMP180;5953;52.372;9.918;2023-04-25T04:19:05;99975.00;;;11.60
11792;BMP180;5953;52.372;9.918;2023-04-25T04:21:32;99990.00;;;11.60
11792;BMP180;5953;52.372;9.918;2023-04-25T04:24:00;99996.00;;;11.60
11792;BMP180;5953;52.372;9.918;2023-04-25T04:26:28;99986.00;;;11.40
11792;BMP180;5953;52.372;9.918;2023-04-25T04:28:58;99993.00;;;11.50
11792;BMP180;5953;52.372;9.918;2023-04-25T04:31:28;100000.00;;;11.70
11792;BMP180;5953;52.372;9.918;2023-04-25T04:33:56;99999.00;;;11.50
11792;BMP180;5953;52.372;9.918;2023-04-25T04:36:24;100003.00;;;11.60
11792;BMP180;5953;52.372;9.918;2023-04-25T04:38:52;100017.00;;;11.60
11792;BMP180;5953;52.372;9.918;2023-04-25T04:41:20;100013.00;;;11.50
11792;BMP180;5953;52.372;9.918;2023-04-25T04:43:48;99991.00;;;11.70
11792;BMP180;5953;52.372;9.918;2023-04-25T04:46:17;100020.00;;;11.70
11792;BMP180;5953;52.372;9.918;2023-04-25T04:48:46;100023.00;;;11.70
11792;BMP180;5953;52.372;9.918;2023-04-25T04:51:14;100016.00;;;11.70
11792;BMP180;5953;52.372;9.918;2023-04-25T04:53:42;100024.00;;;11.50
11792;BMP180;5953;52.372;9.918;2023-04-25T04:56:10;100022.00;;;11.50
11792;BMP180;5953;52.372;9.918;2023-04-25T04:58:38;100025.00;;;11.60
11792;BMP180;5953;52.372;9.918;2023-04-25T05:01:06;100033.00;;;11.60
11792;BMP180;5953;52.372;9.918;2023-04-25T05:03:34;100035.00;;;11.40
11792;BMP180;5953;52.372;9.918;2023-04-25T05:06:03;100037.00;;;11.60
11792;BMP180;5953;52.372;9.918;2023-04-25T05:08:31;100032.00;;;11.70
11792;BMP180;5953;52.372;9.918;2023-04-25T05:10:59;100056.00;;;11.70
11792;BMP180;5953;52.372;9.918;2023-04-25T05:13:27;100024.00;;;11.10
11792;BMP180;5953;52.372;9.918;2023-04-25T05:15:55;100060.00;;;11.50
11792;BMP180;5953;52.372;9.918;2023-04-25T05:18:23;100057.00;;;11.40
11792;BMP180;5953;52.372;9.918;2023-04-25T05:20:51;100063.00;;;11.30
11792;BMP180;5953;52.372;9.918;2023-04-25T05:23:21;100053.00;;;11.40
11792;BMP180;5953;52.372;9.918;2023-04-25T05:25:49;100052.00;;;11.50
11792;BMP180;5953;52.372;9.918;2023-04-25T05:28:16;100064.00;;;11.70
11792;BMP180;5953;52.372;9.918;2023-04-25T05:30:44;100058.00;;;11.60
11792;BMP180;5953;52.372;9.918;2023-04-25T05:33:12;100066.00;;;11.70
11792;BMP180;5953;52.372;9.918;2023-04-25T05:35:40;100069.00;;;11.90
11792;BMP180;5953;52.372;9.918;2023-04-25T05:38:07;100068.00;;;11.90
11792;BMP180;5953;52.372;9.918;2023-04-25T05:40:37;100068.00;;;11.90
11792;BMP180;5953;52.372;9.918;2023-04-25T05:43:04;100078.00;;;11.70
11792;BMP180;5953;52.372;9.918;2023-04-25T05:45:32;100074.00;;;12.00
11792;BMP180;5953;52.372;9.918;2023-04-25T05:48:00;100066.00;;;12.20
11792;BMP180;5953;52.372;9.918;2023-04-25T05:50:28;100090.00;;;12.10
11792;BMP180;5953;52.372;9.918;2023-04-25T05:52:56;100079.00;;;11.90
11792;BMP180;5953;52.372;9.918;2023-04-25T05:55:24;100087.00;;;12.10
11792;BMP180;5953;52.372;9.918;2023-04-25T05:57:53;100082.00;;;11.80
11792;BMP180;5953;52.372;9.918;2023-04-25T06:00:21;100089.00;;;11.50
11792;BMP180;5953;52.372;9.918;2023-04-25T06:02:50;100098.00;;;11.70
11792;BMP180;5953;52.372;9.918;2023-04-25T06:05:18;100100.00;;;11.90
11792;BMP180;5953;52.372;9.918;2023-04-25T06:07:46;100101.00;;;11.90
11792;BMP180;5953;52.372;9.918;2023-04-25T06:10:14;100102.00;;;12.10
11792;BMP180;5953;52.372;9.918;2023-04-25T06:12:42;100105.00;;;11.80
11792;BMP180;5953;52.372;9.918;2023-04-25T06:15:12;100120.00;;;12.00
11792;BMP180;5953;52.372;9.918;2023-04-25T06:17:54;100113.00;;;12.20
11792;BMP180;5953;52.372;9.918;2023-04-25T06:20:22;100115.00;;;12.10
11792;BMP180;5953;52.372;9.918;2023-04-25T06:22:51;100105.00;;;12.00
11792;BMP180;5953;52.372;9.918;2023-04-25T06:25:19;100115.00;;;11.70
11792;BMP180;5953;52.372;9.918;2023-04-25T06:27:47;100124.00;;;12.00
11792;BMP180;5953;52.372;9.918;2023-04-25T06:30:16;100116.00;;;11.80
11792;BMP180;5953;52.372;9.918;2023-04-25T06:32:48;100114.00;;;11.70
11792;BMP180;5953;52.372;9.918;2023-04-25T06:35:16;100122.00;;;11.60
11792;BMP180;5953;52.372;9.918;2023-04-25T06:37:44;100099.00;;;12.00
11792;BMP180;5953;52.372;9.918;2023-04-25T06:40:12;100127.00;;;12.20
11792;BMP180;5953;52.372;9.918;2023-04-25T06:42:41;100101.00;;;12.40
11792;BMP180;5953;52.372;9.918;2023-04-25T06:45:09;100122.00;;;12.10
11792;BMP180;5953;52.372;9.918;2023-04-25T06:47:39;100122.00;;;12.60
11792;BMP180;5953;52.372;9.918;2023-04-25T06:50:07;100133.00;;;12.60
11792;BMP180;5953;52.372;9.918;2023-04-25T06:52:35;100132.00;;;12.70
11792;BMP180;5953;52.372;9.918;2023-04-25T06:55:03;100127.00;;;12.80
11792;BMP180;5953;52.372;9.918;2023-04-25T06:57:34;100132.00;;;13.00
11792;BMP180;5953;52.372;9.918;2023-04-25T07:00:03;100136.00;;;13.00
11792;BMP180;5953;52.372;9.918;2023-04-25T07:02:34;100136.00;;;12.90
11792;BMP180;5953;52.372;9.918;2023-04-25T07:05:04;100140.00;;;13.00
11792;BMP180;5953;52.372;9.918;2023-04-25T07:07:32;100145.00;;;13.10
11792;BMP180;5953;52.372;9.918;2023-04-25T07:10:00;100139.00;;;13.10
11792;BMP180;5953;52.372;9.918;2023-04-25T07:12:28;100138.00;;;12.80
11792;BMP180;5953;52.372;9.918;2023-04-25T07:14:56;100145.00;;;13.10
11792;BMP180;5953;52.372;9.918;2023-04-25T07:17:24;100149.00;;;13.10
11792;BMP180;5953;52.372;9.918;2023-04-25T07:19:52;100164.00;;;13.10
11792;BMP180;5953;52.372;9.918;2023-04-25T07:22:21;100144.00;;;12.70
11792;BMP180;5953;52.372;9.918;2023-04-25T07:24:49;100137.00;;;12.80
11792;BMP180;5953;52.372;9.918;2023-04-25T07:27:17;100152.00;;;13.00
11792;BMP180;5953;52.372;9.918;2023-04-25T07:29:45;100154.00;;;12.90
11792;BMP180;5953;52.372;9.918;2023-04-25T07:32:14;100157.00;;;12.90
11792;BMP180;5953;52.372;9.918;2023-04-25T07:34:41;100146.00;;;12.50
11792;BMP180;5953;52.372;9.918;2023-04-25T07:37:09;100150.00;;;12.80
11792;BMP180;5953;52.372;9.918;2023-04-25T07:39:38;100163.00;;;12.80
11792;BMP180;5953;52.372;9.918;2023-04-25T07:42:06;100169.00;;;12.90
11792;BMP180;5953;52.372;9.918;2023-04-25T07:44:34;100168.00;;;12.70
11792;BMP180;5953;52.372;9.918;2023-04-25T07:47:05;100177.00;;;12.70
11792;BMP180;5953;52.372;9.918;2023-04-25T07:49:34;100175.00;;;12.30
11792;BMP180;5953;52.372;9.918;2023-04-25T07:52:03;100176.00;;;12.70
11792;BMP180;5953;52.372;9.918;2023-04-25T07:54:32;100181.00;;;12.20
11792;BMP180;5953;52.372;9.918;2023-04-25T07:57:01;100182.00;;;12.50
11792;BMP180;5953;52.372;9.918;2023-04-25T07:59:29;100190.00;;;12.70
11792;BMP180;5953;52.372;9.918;2023-04-25T08:01:57;100187.00;;;12.60
11792;BMP180;5953;52.372;9.918;2023-04-25T08:04:25;100189.00;;;12.70
11792;BMP180;5953;52.372;9.918;2023-04-25T08:06:53;100199.00;;;12.70
11792;BMP180;5953;52.372;9.918;2023-04-25T08:09:22;100182.00;;;12.60
11792;BMP180;5953;52.372;9.918;2023-04-25T08:11:49;100179.00;;;12.30
11792;BMP180;5953;52.372;9.918;2023-04-25T08:14:19;100191.00;;;12.60
11792;BMP180;5953;52.372;9.918;2023-04-25T08:16:46;100179.00;;;12.40
11792;BMP180;5953;52.372;9.918;2023-04-25T08:19:14;100181.00;;;12.60
11792;BMP180;5953;52.372;9.918;2023-04-25T08:21:42;100195.00;;;13.00
11792;BMP180;5953;52.372;9.918;2023-04-25T08:24:10;100202.00;;;13.00
11792;BMP180;5953;52.372;9.918;2023-04-25T08:26:38;100204.00;;;12.80
11792;BMP180;5953;52.372;9.918;2023-04-25T08:29:07;100208.00;;;13.10
11792;BMP180;5953;52.372;9.918;2023-04-25T08:31:37;100188.00;;;13.30
11792;BMP180;5953;52.372;9.918;2023-04-25T08:34:04;100199.00;;;13.20
11792;BMP180;5953;52.372;9.918;2023-04-25T08:36:32;100208.00;;;12.90
11792;BMP180;5953;52.372;9.918;2023-04-25T08:39:05;100220.00;;;13.30
11792;BMP180;5953;52.372;9.918;2023-04-25T08:41:34;100175.00;;;13.50
11792;BMP180;5953;52.372;9.918;2023-04-25T08:44:03;100215.00;;;13.60
11792;BMP180;5953;52.372;9.918;2023-04-25T08:46:32;100216.00;;;13.80
11792;BMP180;5953;52.372;9.918;2023-04-25T08:49:02;100223.00;;;14.00
11792;BMP180;5953;52.372;9.918;2023-04-25T08:51:32;100226.00;;;14.00
11792;BMP180;5953;52.372;9.918;2023-04-25T08:54:08;100228.00;;;13.80
11792;BMP180;5953;52.372;9.918;2023-04-25T08:56:57;100231.00;;;14.00
11792;BMP180;5953;52.372;9.918;2023-04-25T08:59:28;100235.00;;;14.00
11792;BMP180;5953;52.372;9.918;2023-04-25T09:01:57;100238.00;;;13.10
11792;BMP180;5953;52.372;9.918;2023-04-25T09:04:26;100240.00;;;13.80
11792;BMP180;5953;52.372;9.918;2023-04-25T09:06:54;100241.00;;;13.70
11792;BMP180;5953;52.372;9.918;2023-04-25T09:09:23;100251.00;;;13.60
11792;BMP180;5953;52.372;9.918;2023-04-25T09:11:54;100254.00;;;13.80
11792;BMP180;5953;52.372;9.918;2023-04-25T09:14:23;100259.00;;;13.70
11792;BMP180;5953;52.372;9.918;2023-04-25T09:16:59;100263.00;;;13.30
11792;BMP180;5953;52.372;9.918;2023-04-25T09:19:31;100269.00;;;13.50
11792;BMP180;5953;52.372;9.918;2023-04-25T09:22:03;100273.00;;;13.80
11792;BMP180;5953;52.372;9.918;2023-04-25T09:24:33;100261.00;;;13.50
11792;BMP180;5953;52.372;9.918;2023-04-25T09:27:05;100256.00;;;13.70
11792;BMP180;5953;52.372;9.918;2023-04-25T09:29:35;100274.00;;;13.80
11792;BMP180;5953;52.372;9.918;2023-04-25T09:32:22;100279.00;;;13.70
11792;BMP180;5953;52.372;9.918;2023-04-25T09:34:53;100283.00;;;14.10
11792;BMP180;5953;52.372;9.918;2023-04-25T09:37:24;100269.00;;;14.40
11792;BMP180;5953;52.372;9.918;2023-04-25T09:39:54;100275.00;;;14.30
11792;BMP180;5953;52.372;9.918;2023-04-25T09:42:22;100276.00;;;14.50
11792;BMP180;5953;52.372;9.918;2023-04-25T09:44:52;100282.00;;;14.50
11792;BMP180;5953;52.372;9.918;2023-04-25T09:47:22;100288.00;;;14.10
11792;BMP180;5953;52.372;9.918;2023-04-25T09:49:53;100288.00;;;14.10
11792;BMP180;5953;52.372;9.918;2023-04-25T09:52:23;100285.00;;;14.50
11792;BMP180;5953;52.372;9.918;2023-04-25T09:54:52;100274.00;;;14.40
11792;BMP180;5953;52.372;9.918;2023-04-25T09:57:21;100288.00;;;14.50
11792;BMP180;5953;52.372;9.918;2023-04-25T09:59:51;100285.00;;;14.90
11792;BMP180;5953;52.372;9.918;2023-04-25T10:02:21;100292.00;;;14.90
11792;BMP180;5953;52.372;9.918;2023-04-25T10:04:51;100273.00;;;14.90
11792;BMP180;5953;52.372;9.918;2023-04-25T10:07:26;100296.00;;;14.80
11792;BMP180;5953;52.372;9.918;2023-04-25T10:09:58;100288.00;;;14.60
11792;BMP180;5953;52.372;9.918;2023-04-25T10:12:27;100289.00;;;14.60
11792;BMP180;5953;52.372;9.918;2023-04-25T10:14:55;100280.00;;;14.70
11792;BMP180;5953;52.372;9.918;2023-04-25T10:17:23;100294.00;;;14.90
11792;BMP180;5953;52.372;9.918;2023-04-25T10:19:51;100291.00;;;14.80
11792;BMP180;5953;52.372;9.918;2023-04-25T10:22:26;100296.00;;;14.70
11792;BMP180;5953;52.372;9.918;2023-04-25T10:24:56;100296.00;;;14.70
11792;BMP180;5953;52.372;9.918;2023-04-25T10:27:27;100298.00;;;14.30
11792;BMP180;5953;52.372;9.918;2023-04-25T10:30:00;100300.00;;;14.40
11792;BMP180;5953;52.372;9.918;2023-04-25T10:32:30;100315.00;;;14.20
11792;BMP180;5953;52.372;9.918;2023-04-25T10:35:10;100314.00;;;14.30
11792;BMP180;5953;52.372;9.918;2023-04-25T10:37:56;100323.00;;;14.40
11792;BMP180;5953;52.372;9.918;2023-04-25T10:40:25;100332.00;;;14.20
11792;BMP180;5953;52.372;9.918;2023-04-25T10:42:53;100330.00;;;13.80
11792;BMP180;5953;52.372;9.918;2023-04-25T10:45:22;100332.00;;;13.80
11792;BMP180;5953;52.372;9.918;2023-04-25T10:47:50;100333.00;;;13.60
11792;BMP180;5953;52.372;9.918;2023-04-25T10:50:18;100336.00;;;13.60
11792;BMP180;5953;52.372;9.918;2023-04-25T10:52:48;100336.00;;;14.10
11792;BMP180;5953;52.372;9.918;2023-04-25T10:55:15;100335.00;;;14.40
11792;BMP180;5953;52.372;9.918;2023-04-25T10:57:44;100336.00;;;14.10
11792;BMP180;5953;52.372;9.918;2023-04-25T11:00:16;100341.00;;;13.90
11792;BMP180;5953;52.372;9.918;2023-04-25T11:02:46;100341.00;;;13.90
11792;BMP180;5953;52.372;9.918;2023-04-25T11:05:22;100352.00;;;13.70
11792;BMP180;5953;52.372;9.918;2023-04-25T11:07:52;100352.00;;;13.50
11792;BMP180;5953;52.372;9.918;2023-04-25T11:10:33;100343.00;;;13.50
11792;BMP180;5953;52.372;9.918;2023-04-25T11:13:02;100338.00;;;13.70
11792;BMP180;5953;52.372;9.918;2023-04-25T11:15:30;100342.00;;;14.00
11792;BMP180;5953;52.372;9.918;2023-04-25T11:17:58;100337.00;;;14.10
11792;BMP180;5953;52.372;9.918;2023-04-25T11:20:26;100340.00;;;14.30
11792;BMP180;5953;52.372;9.918;2023-04-25T11:22:58;100339.00;;;14.50
11792;BMP180;5953;52.372;9.918;2023-04-25T11:25:26;100354.00;;;14.50
11792;BMP180;5953;52.372;9.918;2023-04-25T11:27:55;100348.00;;;14.50
11792;BMP180;5953;52.372;9.918;2023-04-25T11:30:25;100354.00;;;14.50
11792;BMP180;5953;52.372;9.918;2023-04-25T11:32:53;100338.00;;;14.50
11792;BMP180;5953;52.372;9.918;2023-04-25T11:35:22;100349.00;;;14.90
11792;BMP180;5953;52.372;9.918;2023-04-25T11:37:52;100361.00;;;15.20
11792;BMP180;5953;52.372;9.918;2023-04-25T11:40:21;100353.00;;;15.20
11792;BMP180;5953;52.372;9.918;2023-04-25T11:42:49;100361.00;;;14.70
11792;BMP180;5953;52.372;9.918;2023-04-25T11:45:22;100366.00;;;14.90
11792;BMP180;5953;52.372;9.918;2023-04-25T11:47:51;100375.00;;;14.80
11792;BMP180;5953;52.372;9.918;2023-04-25T11:50:19;100372.00;;;14.80
11792;BMP180;5953;52.372;9.918;2023-04-25T11:52:47;100383.00;;;14.60
11792;BMP180;5953;52.372;9.918;2023-04-25T11:55:17;100386.00;;;13.30
11792;BMP180;5953;52.372;9.918;2023-04-25T11:57:47;100393.00;;;13.90
11792;BMP180;5953;52.372;9.918;2023-04-25T12:00:18;100398.00;;;13.90
11792;BMP180;5953;52.372;9.918;2023-04-25T12:02:47;100409.00;;;13.90
11792;BMP180;5953;52.372;9.918;2023-04-25T12:05:15;100407.00;;;13.90
11792;BMP180;5953;52.372;9.918;2023-04-25T12:07:46;100410.00;;;13.70
11792;BMP180;5953;52.372;9.918;2023-04-25T12:10:15;100399.00;;;13.50
11792;BMP180;5953;52.372;9.918;2023-04-25T12:12:46;100398.00;;;13.50
11792;BMP180;5953;52.372;9.918;2023-04-25T12:15:15;100403.00;;;13.80
11792;BMP180;5953;52.372;9.918;2023-04-25T12:17:46;100403.00;;;13.90
11792;BMP180;5953;52.372;9.918;2023-04-25T12:20:16;100399.00;;;14.00
11792;BMP180;5953;52.372;9.918;2023-04-25T12:22:45;100390.00;;;14.10
11792;BMP180;5953;52.372;9.918;2023-04-25T12:25:33;100405.00;;;14.10
11792;BMP180;5953;52.372;9.918;2023-04-25T12:28:14;100393.00;;;14.40
11792;BMP180;5953;52.372;9.918;2023-04-25T12:30:55;100390.00;;;14.40
11792;BMP180;5953;52.372;9.918;2023-04-25T12:33:24;100396.00;;;14.30
11792;BMP180;5953;52.372;9.918;2023-04-25T12:35:52;100405.00;;;14.80
11792;BMP180;5953;52.372;9.918;2023-04-25T12:38:21;100393.00;;;14.60
11792;BMP180;5953;52.372;9.918;2023-04-25T12:40:49;100402.00;;;15.00
11792;BMP180;5953;52.372;9.918;2023-04-25T12:43:18;100403.00;;;14.70
11792;BMP180;5953;52.372;9.918;2023-04-25T12:45:47;100410.00;;;14.70
11792;BMP180;5953;52.372;9.918;2023-04-25T12:48:16;100423.00;;;15.00
11792;BMP180;5953;52.372;9.918;2023-04-25T12:50:45;100415.00;;;14.50
11792;BMP180;5953;52.372;9.918;2023-04-25T12:53:15;100431.00;;;14.10
11792;BMP180;5953;52.372;9.918;2023-04-25T12:55:43;100452.00;;;14.40
11792;BMP180;5953;52.372;9.918;2023-04-25T12:58:12;100448.00;;;13.90
11792;BMP180;5953;52.372;9.918;2023-04-25T13:00:42;100436.00;;;13.70
11792;BMP180;5953;52.372;9.918;2023-04-25T13:03:10;100413.00;;;13.30
11792;BMP180;5953;52.372;9.918;2023-04-25T13:05:39;100438.00;;;13.40
11792;BMP180;5953;52.372;9.918;2023-04-25T13:08:07;100444.00;;;13.70
11792;BMP180;5953;52.372;9.918;2023-04-25T13:10:35;100444.00;;;13.60
11792;BMP180;5953;52.372;9.918;2023-04-25T13:13:04;100414.00;;;13.80
11792;BMP180;5953;52.372;9.918;2023-04-25T13:15:32;100449.00;;;13.80
11792;BMP180;5953;52.372;9.918;2023-04-25T13:18:02;100443.00;;;13.70
11792;BMP180;5953;52.372;9.918;2023-04-25T13:20:30;100440.00;;;13.50
11792;BMP180;5953;52.372;9.918;2023-04-25T13:22:59;100444.00;;;13.70
11792;BMP180;5953;52.372;9.918;2023-04-25T13:25:28;100455.00;;;13.50
11792;BMP180;5953;52.372;9.918;2023-04-25T13:27:56;100451.00;;;13.70
11792;BMP180;5953;52.372;9.918;2023-04-25T13:30:24;100451.00;;;13.40
11792;BMP180;5953;52.372;9.918;2023-04-25T13:32:53;100442.00;;;13.50
11792;BMP180;5953;52.372;9.918;2023-04-25T13:35:24;100450.00;;;13.50
11792;BMP180;5953;52.372;9.918;2023-04-25T13:37:52;100450.00;;;13.00
11792;BMP180;5953;52.372;9.918;2023-04-25T13:40:20;100455.00;;;13.40
11792;BMP180;5953;52.372;9.918;2023-04-25T13:42:51;100461.00;;;13.30
11792;BMP180;5953;52.372;9.918;2023-04-25T13:45:19;100456.00;;;13.20
11792;BMP180;5953;52.372;9.918;2023-04-25T13:47:47;100451.00;;;13.60
11792;BMP180;5953;52.372;9.918;2023-04-25T13:50:16;100448.00;;;13.70
11792;BMP180;5953;52.372;9.918;2023-04-25T13:52:46;100442.00;;;13.50
11792;BMP180;5953;52.372;9.918;2023-04-25T13:55:14;100442.00;;;13.80
11792;BMP180;5953;52.372;9.918;2023-04-25T13:57:43;100459.00;;;13.90
11792;BMP180;5953;52.372;9.918;2023-04-25T14:00:12;100455.00;;;14.00
11792;BMP180;5953;52.372;9.918;2023-04-25T14:02:50;100442.00;;;14.00
11792;BMP180;5953;52.372;9.918;2023-04-25T14:05:18;100448.00;;;13.80
11792;BMP180;5953;52.372;9.918;2023-04-25T14:07:47;100458.00;;;14.00
11792;BMP180;5953;52.372;9.918;2023-04-25T14:10:15;100478.00;;;13.80
11792;BMP180;5953;52.372;9.918;2023-04-25T14:12:43;100476.00;;;12.70
11792;BMP180;5953;52.372;9.918;2023-04-25T14:15:11;100501.00;;;12.90
11792;BMP180;5953;52.372;9.918;2023-04-25T14:17:40;100491.00;;;12.80
11792;BMP180;5953;52.372;9.918;2023-04-25T14:20:08;100480.00;;;12.40
11792;BMP180;5953;52.372;9.918;2023-04-25T14:22:37;100477.00;;;12.50
11792;BMP180;5953;52.372;9.918;2023-04-25T14:25:11;100483.00;;;12.60